createdAt,value
2022-11-17T00:01:21.835Z,100.00
2022-11-17T00:03:49.539Z,100.00
2022-11-17T00:06:17.621Z,100.00
2022-11-17T00:08:44.206Z,100.00
2022-11-17T00:11:10.706Z,100.00
2022-11-17T00:13:55.925Z,100.00
2022-11-17T00:16:22.469Z,100.00
2022-11-17T00:19:08.292Z,100.00
2022-11-17T00:21:34.979Z,100.00
2022-11-17T00:24:01.803Z,100.00
2022-11-17T00:26:31.057Z,100.00
2022-11-17T00:29:02.778Z,100.00
2022-11-17T00:31:49.522Z,100.00
2022-11-17T00:34:18.973Z,100.00
2022-11-17T00:36:51.152Z,100.00
2022-11-17T00:39:19.676Z,100.00
2022-11-17T00:41:46.414Z,100.00
2022-11-17T00:44:13.560Z,100.00
2022-11-17T00:46:41.087Z,100.00
2022-11-17T00:49:09.076Z,100.00
2022-11-17T00:51:36.503Z,100.00
2022-11-17T00:54:04.665Z,100.00
2022-11-17T00:56:31.322Z,100.00
2022-11-17T00:58:58.320Z,100.00
2022-11-17T01:01:25.722Z,100.00
2022-11-17T01:04:02.679Z,100.00
2022-11-17T01:06:31.255Z,100.00
2022-11-17T01:09:06.149Z,100.00
2022-11-17T01:11:33.048Z,100.00
2022-11-17T01:14:00.735Z,100.00
2022-11-17T01:16:29.070Z,100.00
2022-11-17T01:18:56.072Z,100.00
2022-11-17T01:21:25.717Z,100.00
2022-11-17T01:23:54.418Z,100.00
2022-11-17T01:26:23.365Z,100.00
2022-11-17T01:28:50.819Z,100.00
2022-11-17T01:31:20.164Z,100.00
2022-11-17T01:33:47.713Z,100.00
2022-11-17T01:36:23.891Z,100.00
2022-11-17T01:38:50.534Z,100.00
2022-11-17T01:41:23.218Z,100.00
2022-11-17T01:43:55.375Z,100.00
2022-11-17T01:46:34.318Z,100.00
2022-11-17T01:49:04.274Z,100.00
2022-11-17T01:51:35.400Z,100.00
2022-11-17T01:54:02.578Z,100.00
2022-11-17T01:56:35.889Z,100.00
2022-11-17T01:59:09.987Z,100.00
2022-11-17T02:01:55.519Z,100.00
2022-11-17T02:04:29.703Z,100.00
2022-11-17T02:07:03.824Z,100.00
2022-11-17T02:09:33.113Z,100.00
2022-11-17T02:11:59.674Z,100.00
2022-11-17T02:14:26.350Z,100.00
2022-11-17T02:16:52.913Z,100.00
2022-11-17T02:19:20.679Z,100.00
2022-11-17T02:22:14.460Z,100.00
2022-11-17T02:24:46.704Z,100.00
2022-11-17T02:27:16.043Z,100.00
2022-11-17T02:30:00.335Z,100.00
2022-11-17T02:32:42.137Z,100.00
2022-11-17T02:35:23.872Z,100.00
2022-11-17T02:37:59.014Z,100.00
2022-11-17T02:40:42.502Z,100.00
2022-11-17T02:43:36.503Z,100.00
2022-11-17T02:46:08.792Z,100.00
2022-11-17T02:48:39.760Z,100.00
2022-11-17T02:51:12.847Z,100.00
2022-11-17T02:53:40.955Z,100.00
2022-11-17T02:56:07.539Z,100.00
2022-11-17T02:58:34.027Z,100.00
2022-11-17T03:01:00.425Z,100.00
2022-11-17T03:03:51.663Z,100.00
2022-11-17T03:06:35.906Z,100.00
2022-11-17T03:09:20.511Z,100.00
2022-11-17T03:12:13.581Z,100.00
2022-11-17T03:14:49.149Z,100.00
2022-11-17T03:17:23.373Z,100.00
2022-11-17T03:20:11.522Z,100.00
2022-11-17T03:22:48.549Z,100.00
2022-11-17T03:25:17.684Z,100.00
2022-11-17T03:27:51.624Z,100.00
2022-11-17T03:30:19.288Z,100.00
2022-11-17T03:32:51.950Z,100.00
2022-11-17T03:35:23.073Z,100.00
2022-11-17T03:37:55.905Z,100.00
2022-11-17T03:40:27.785Z,100.00
2022-11-17T03:42:58.862Z,100.00
2022-11-17T03:45:31.571Z,100.00
2022-11-17T03:48:11.123Z,100.00
2022-11-17T03:50:43.613Z,100.00
2022-11-17T03:53:10.766Z,100.00
2022-11-17T03:55:49.095Z,100.00
2022-11-17T03:58:19.441Z,100.00
2022-11-17T04:00:51.946Z,100.00
2022-11-17T04:03:22.096Z,100.00
2022-11-17T04:05:48.780Z,100.00
2022-11-17T04:08:15.291Z,100.00
2022-11-17T04:11:00.150Z,100.00
2022-11-17T04:13:45.350Z,100.00
2022-11-17T04:16:11.826Z,100.00
2022-11-17T04:18:38.255Z,100.00
2022-11-17T04:21:05.015Z,100.00
2022-11-17T04:23:31.502Z,100.00
2022-11-17T04:26:16.750Z,100.00
2022-11-17T04:28:46.837Z,100.00
2022-11-17T04:31:16.087Z,100.00
2022-11-17T04:33:45.359Z,100.00
2022-11-17T04:36:13.841Z,100.00
2022-11-17T04:38:45.388Z,100.00
2022-11-17T04:41:32.084Z,100.00
2022-11-17T04:43:59.536Z,100.00
2022-11-17T04:46:27.226Z,100.00
2022-11-17T04:48:55.360Z,100.00
2022-11-17T04:51:22.942Z,100.00
2022-11-17T04:53:50.344Z,100.00
2022-11-17T04:56:18.867Z,100.00
2022-11-17T04:58:45.762Z,100.00
2022-11-17T05:01:12.452Z,100.00
2022-11-17T05:03:48.034Z,100.00
2022-11-17T05:06:17.634Z,100.00
2022-11-17T05:08:45.079Z,100.00
2022-11-17T05:11:32.304Z,100.00
2022-11-17T05:13:59.510Z,100.00
2022-11-17T05:16:45.589Z,100.00
2022-11-17T05:19:15.175Z,100.00
2022-11-17T05:21:41.693Z,100.00
2022-11-17T05:24:08.739Z,100.00
2022-11-17T05:26:37.444Z,100.00
2022-11-17T05:29:06.070Z,100.00
2022-11-17T05:31:32.656Z,100.00
2022-11-17T05:33:59.467Z,100.00
2022-11-17T05:36:27.760Z,100.00
2022-11-17T05:38:55.074Z,100.00
2022-11-17T05:41:22.777Z,100.00
2022-11-17T05:43:50.445Z,100.00
2022-11-17T05:46:18.759Z,100.00
2022-11-17T05:48:46.471Z,100.00
2022-11-17T05:51:13.356Z,100.00
2022-11-17T05:53:39.963Z,100.00
2022-11-17T05:56:21.671Z,100.00
2022-11-17T05:58:53.001Z,100.00
2022-11-17T06:01:20.824Z,100.00
2022-11-17T06:03:57.463Z,100.00
2022-11-17T06:06:24.261Z,100.00
2022-11-17T06:08:50.861Z,100.00
2022-11-17T06:11:18.973Z,100.00
2022-11-17T06:13:45.535Z,100.00
2022-11-17T06:16:14.879Z,100.00
2022-11-17T06:18:46.307Z,100.00
2022-11-17T06:21:15.808Z,100.00
2022-11-17T06:23:44.490Z,100.00
2022-11-17T06:26:11.592Z,100.00
2022-11-17T06:28:41.140Z,100.00
2022-11-17T06:31:08.138Z,100.00
2022-11-17T06:33:37.383Z,100.00
2022-11-17T06:36:06.601Z,100.00
2022-11-17T06:38:35.779Z,100.00
2022-11-17T06:41:08.902Z,100.00
2022-11-17T06:43:38.672Z,100.00
2022-11-17T06:46:05.837Z,100.00
2022-11-17T06:48:35.653Z,100.00
2022-11-17T06:51:04.617Z,100.00
2022-11-17T06:53:33.715Z,100.00
2022-11-17T06:56:04.155Z,100.00
2022-11-17T06:58:31.128Z,100.00
2022-11-17T07:01:02.520Z,100.00
2022-11-17T07:03:29.583Z,100.00
2022-11-17T07:05:59.674Z,100.00
2022-11-17T07:08:26.875Z,100.00
2022-11-17T07:10:54.825Z,100.00
2022-11-17T07:13:22.867Z,100.00
2022-11-17T07:15:50.169Z,100.00
2022-11-17T07:18:19.149Z,100.00
2022-11-17T07:20:47.077Z,100.00
2022-11-17T07:23:14.560Z,100.00
2022-11-17T07:25:41.383Z,100.00
2022-11-17T07:28:08.349Z,100.00
2022-11-17T07:30:35.137Z,100.00
2022-11-17T07:33:02.048Z,100.00
2022-11-17T07:35:28.883Z,100.00
2022-11-17T07:38:01.251Z,100.00
2022-11-17T07:40:28.913Z,100.00
2022-11-17T07:42:55.857Z,100.00
2022-11-17T07:45:25.172Z,100.00
2022-11-17T07:48:01.952Z,100.00
2022-11-17T07:50:29.437Z,100.00
2022-11-17T07:52:57.149Z,100.00
2022-11-17T07:55:24.976Z,100.00
2022-11-17T07:57:59.239Z,100.00
2022-11-17T08:00:28.117Z,100.00
2022-11-17T08:02:55.047Z,100.00
2022-11-17T08:05:21.945Z,100.00
2022-11-17T08:07:59.222Z,100.00
2022-11-17T08:10:31.340Z,100.00
2022-11-17T08:13:00.940Z,100.00
2022-11-17T08:15:28.427Z,100.00
2022-11-17T08:17:57.023Z,100.00
2022-11-17T08:20:24.291Z,100.00
2022-11-17T08:22:52.288Z,100.00
2022-11-17T08:25:20.237Z,100.00
2022-11-17T08:27:48.668Z,100.00
2022-11-17T08:30:15.796Z,100.00
2022-11-17T08:32:50.069Z,100.00
2022-11-17T08:35:17.214Z,100.00
2022-11-17T08:37:43.790Z,100.00
2022-11-17T08:40:11.674Z,100.00
2022-11-17T08:42:38.738Z,100.00
2022-11-17T08:45:08.826Z,100.00
2022-11-17T08:47:35.710Z,100.00
2022-11-17T08:50:04.688Z,100.00
2022-11-17T08:52:31.254Z,100.00
2022-11-17T08:54:58.074Z,100.00
2022-11-17T08:57:24.739Z,100.00
2022-11-17T08:59:51.332Z,100.00
2022-11-17T09:02:17.936Z,100.00
2022-11-17T09:04:46.098Z,100.00
2022-11-17T09:07:12.756Z,100.00
2022-11-17T09:09:39.527Z,100.00
2022-11-17T09:12:06.421Z,100.00
2022-11-17T09:14:33.191Z,100.00
2022-11-17T09:16:59.889Z,100.00
2022-11-17T09:19:26.828Z,100.00
2022-11-17T09:21:53.423Z,100.00
2022-11-17T09:24:19.823Z,100.00
2022-11-17T09:26:46.382Z,100.00
2022-11-17T09:29:14.198Z,100.00
2022-11-17T09:31:40.855Z,100.00
2022-11-17T09:34:07.890Z,100.00
2022-11-17T09:36:34.514Z,100.00
2022-11-17T09:39:01.027Z,100.00
2022-11-17T09:41:36.244Z,100.00
2022-11-17T09:44:05.415Z,100.00
2022-11-17T09:46:31.918Z,100.00
2022-11-17T09:49:02.471Z,100.00
2022-11-17T09:51:31.910Z,100.00
2022-11-17T09:54:22.313Z,100.00
2022-11-17T09:56:50.432Z,100.00
2022-11-17T09:59:21.420Z,100.00
2022-11-17T10:01:48.015Z,100.00
2022-11-17T10:04:16.882Z,100.00
2022-11-17T10:06:46.067Z,100.00
2022-11-17T10:09:12.530Z,100.00
2022-11-17T10:11:41.237Z,100.00
2022-11-17T10:14:23.619Z,100.00
2022-11-17T10:16:55.952Z,100.00
2022-11-17T10:19:30.789Z,100.00
2022-11-17T10:22:03.568Z,100.00
2022-11-17T10:24:34.535Z,100.00
2022-11-17T10:27:02.992Z,100.00
2022-11-17T10:29:29.622Z,100.00
2022-11-17T10:31:56.225Z,100.00
2022-11-17T10:34:40.744Z,100.00
2022-11-17T10:37:13.831Z,100.00
2022-11-17T10:39:42.624Z,100.00
2022-11-17T10:42:27.729Z,100.00
2022-11-17T10:44:58.569Z,100.00
2022-11-17T10:47:26.373Z,100.00
2022-11-17T10:50:12.279Z,100.00
2022-11-17T10:52:38.837Z,100.00
2022-11-17T10:55:28.633Z,100.00
2022-11-17T10:58:00.840Z,100.00
2022-11-17T11:00:37.394Z,100.00
2022-11-17T11:03:25.203Z,100.00
2022-11-17T11:05:54.516Z,100.00
2022-11-17T11:08:27.311Z,100.00
2022-11-17T11:10:57.045Z,100.00
2022-11-17T11:13:37.019Z,100.00
2022-11-17T11:33:07.325Z,100.00
2022-11-17T11:35:41.977Z,100.00
2022-11-17T11:38:17.574Z,100.00
2022-11-17T11:40:58.755Z,100.00
2022-11-17T11:43:44.054Z,100.00
2022-11-17T11:46:17.793Z,100.00
2022-11-17T11:48:48.689Z,100.00
2022-11-17T11:51:19.233Z,100.00
2022-11-17T11:53:51.803Z,100.00
2022-11-17T11:56:34.970Z,100.00
2022-11-17T11:59:15.486Z,100.00
2022-11-17T12:01:55.162Z,100.00
2022-11-17T12:04:30.752Z,100.00
2022-11-17T12:07:13.854Z,100.00
2022-11-17T12:09:57.911Z,100.00
2022-11-17T12:12:33.621Z,100.00
2022-11-17T12:15:09.068Z,100.00
2022-11-17T12:17:36.817Z,100.00
2022-11-17T12:20:25.453Z,100.00
2022-11-17T12:23:16.719Z,100.00
2022-11-17T12:26:02.751Z,100.00
2022-11-17T12:28:41.134Z,100.00
2022-11-17T12:31:30.545Z,100.00
2022-11-17T12:34:00.098Z,100.00
2022-11-17T12:36:32.026Z,100.00
2022-11-17T12:39:00.722Z,100.00
2022-11-17T12:41:48.727Z,100.00
2022-11-17T12:44:34.028Z,100.00
2022-11-17T12:47:15.681Z,100.00
2022-11-17T12:50:16.224Z,100.00
2022-11-17T12:53:13.735Z,100.00
2022-11-17T12:56:08.769Z,100.00
2022-11-17T12:58:54.013Z,100.00
2022-11-17T13:01:33.944Z,100.00
2022-11-17T13:04:17.440Z,100.00
2022-11-17T13:07:04.575Z,100.00
2022-11-17T13:09:36.338Z,100.00
2022-11-17T13:12:09.811Z,100.00
2022-11-17T13:14:52.527Z,100.00
2022-11-17T13:17:21.798Z,100.00
2022-11-17T13:19:58.252Z,100.00
2022-11-17T13:22:24.858Z,100.00
2022-11-17T13:24:53.539Z,100.00
2022-11-17T13:27:28.277Z,100.00
2022-11-17T13:30:15.195Z,100.00
2022-11-17T13:32:43.053Z,100.00
2022-11-17T13:35:34.066Z,100.00
2022-11-17T13:38:19.829Z,100.00
2022-11-17T13:40:48.830Z,100.00
2022-11-17T13:43:18.381Z,100.00
2022-11-17T13:45:45.789Z,100.00
2022-11-17T13:48:38.665Z,100.00
2022-11-17T13:51:21.594Z,100.00
2022-11-17T13:53:53.091Z,100.00
2022-11-17T13:56:30.844Z,100.00
2022-11-17T13:58:59.435Z,99.38
2022-11-17T14:01:31.305Z,99.16
2022-11-17T14:04:18.266Z,99.59
2022-11-17T14:06:57.152Z,98.97
2022-11-17T14:09:25.981Z,98.50
2022-11-17T14:11:52.977Z,96.79
2022-11-17T14:14:29.689Z,98.70
2022-11-17T14:16:57.559Z,93.76
2022-11-17T14:19:27.111Z,95.91
2022-11-17T14:22:26.149Z,98.56
2022-11-17T14:24:56.022Z,96.79
2022-11-17T14:27:36.526Z,98.05
2022-11-17T14:30:04.817Z,97.38
2022-11-17T14:32:32.348Z,96.93
2022-11-17T14:34:58.901Z,97.99
2022-11-17T14:37:26.088Z,98.44
2022-11-17T14:39:52.598Z,98.83
2022-11-17T14:42:18.996Z,100.00
2022-11-17T14:44:45.513Z,100.00
2022-11-17T14:47:11.957Z,100.00
2022-11-17T14:49:38.545Z,97.48
2022-11-17T14:52:05.038Z,100.00
2022-11-17T14:54:31.565Z,100.00
2022-11-17T14:56:57.945Z,100.00
2022-11-17T14:59:24.469Z,100.00
2022-11-17T15:01:50.889Z,100.00
2022-11-17T15:07:04.069Z,100.00
2022-11-17T15:09:31.421Z,100.00
2022-11-17T15:11:57.934Z,100.00
2022-11-17T15:14:24.503Z,100.00
2022-11-17T15:16:51.083Z,100.00
2022-11-17T15:19:17.506Z,100.00
2022-11-17T15:21:44.061Z,100.00
2022-11-17T15:24:10.462Z,100.00
2022-11-17T15:26:37.062Z,100.00
2022-11-17T15:29:03.574Z,100.00
2022-11-17T15:31:30.226Z,100.00
2022-11-17T15:33:56.789Z,100.00
2022-11-17T15:36:23.441Z,100.00
2022-11-17T15:38:50.125Z,100.00
2022-11-17T15:41:16.939Z,100.00
2022-11-17T15:43:44.583Z,100.00
2022-11-17T15:46:13.923Z,100.00
2022-11-17T15:48:43.144Z,100.00
2022-11-17T15:51:12.632Z,100.00
2022-11-17T15:53:39.545Z,100.00
2022-11-17T15:56:12.903Z,100.00
2022-11-17T15:58:40.877Z,100.00
2022-11-17T16:01:12.117Z,100.00
2022-11-17T16:03:40.040Z,100.00
2022-11-17T16:06:07.464Z,100.00
2022-11-17T16:08:34.390Z,100.00
2022-11-17T16:11:01.745Z,100.00
2022-11-17T16:13:28.816Z,100.00
2022-11-17T16:15:55.915Z,100.00
2022-11-17T16:18:23.062Z,100.00
2022-11-17T16:20:50.280Z,100.00
2022-11-17T16:23:17.297Z,100.00
2022-11-17T16:25:45.930Z,100.00
2022-11-17T16:28:13.273Z,100.00
2022-11-17T16:30:41.257Z,100.00
2022-11-17T16:33:13.397Z,100.00
2022-11-17T16:35:40.901Z,100.00
2022-11-17T16:38:12.728Z,100.00
2022-11-17T16:40:39.897Z,100.00
2022-11-17T16:43:06.562Z,100.00
2022-11-17T16:45:41.704Z,100.00
2022-11-17T16:48:09.042Z,100.00
2022-11-17T16:50:40.184Z,100.00
2022-11-17T16:53:06.953Z,100.00
2022-11-17T16:55:38.359Z,100.00
2022-11-17T16:58:06.205Z,100.00
2022-11-17T17:00:37.621Z,100.00
2022-11-17T17:03:04.289Z,100.00
2022-11-17T17:05:30.838Z,100.00
2022-11-17T17:07:57.273Z,100.00
2022-11-17T17:10:24.560Z,100.00
2022-11-17T17:12:51.271Z,100.00
2022-11-17T17:15:17.894Z,100.00
2022-11-17T17:17:44.494Z,100.00
2022-11-17T17:20:11.404Z,100.00
2022-11-17T17:22:37.930Z,100.00
2022-11-17T17:25:04.922Z,100.00
2022-11-17T17:27:31.763Z,100.00
2022-11-17T17:29:58.342Z,100.00
2022-11-17T17:32:24.893Z,100.00
2022-11-17T17:34:51.629Z,100.00
2022-11-17T17:37:18.165Z,100.00
2022-11-17T17:39:44.582Z,100.00
2022-11-17T17:42:12.189Z,100.00
2022-11-17T17:44:38.672Z,100.00
2022-11-17T17:47:05.141Z,100.00
2022-11-17T17:49:31.763Z,100.00
2022-11-17T17:51:58.225Z,100.00
2022-11-17T17:54:25.262Z,100.00
2022-11-17T17:56:52.649Z,100.00
2022-11-17T17:59:19.530Z,100.00
2022-11-17T18:01:47.528Z,100.00
2022-11-17T18:04:16.564Z,100.00
2022-11-17T18:06:48.791Z,100.00
2022-11-17T18:09:19.119Z,100.00
2022-11-17T18:11:49.404Z,100.00
2022-11-17T18:14:23.738Z,100.00
2022-11-17T18:16:51.088Z,100.00
2022-11-17T18:19:18.288Z,100.00
2022-11-17T18:21:45.084Z,100.00
2022-11-17T18:24:12.441Z,100.00
2022-11-17T18:26:40.945Z,100.00
2022-11-17T18:29:18.677Z,100.00
2022-11-17T18:31:47.285Z,100.00
2022-11-17T18:34:21.637Z,100.00
2022-11-17T18:36:53.406Z,100.00
2022-11-17T18:39:21.220Z,100.00
2022-11-17T18:41:48.018Z,100.00
2022-11-17T18:44:16.972Z,100.00
2022-11-17T18:46:43.540Z,100.00
2022-11-17T18:49:10.371Z,100.00
2022-11-17T18:51:36.885Z,100.00
2022-11-17T18:54:03.464Z,100.00
2022-11-17T18:56:37.693Z,100.00
2022-11-17T18:59:12.029Z,100.00
2022-11-17T19:01:42.956Z,100.00
2022-11-17T19:04:13.337Z,100.00
2022-11-17T19:06:39.884Z,100.00
2022-11-17T19:09:06.767Z,100.00
2022-11-17T19:11:34.503Z,100.00
2022-11-17T19:14:05.606Z,100.00
2022-11-17T19:16:33.383Z,100.00
2022-11-17T19:19:00.117Z,100.00
2022-11-17T19:21:30.679Z,100.00
2022-11-17T19:23:59.089Z,100.00
2022-11-17T19:26:28.081Z,100.00
2022-11-17T19:29:02.294Z,100.00
2022-11-17T19:31:29.077Z,100.00
2022-11-17T19:33:57.063Z,100.00
2022-11-17T19:36:26.780Z,100.00
2022-11-17T19:38:55.210Z,100.00
2022-11-17T19:41:30.856Z,100.00
2022-11-17T19:44:00.114Z,100.00
2022-11-17T19:46:28.453Z,100.00
2022-11-17T19:48:56.193Z,100.00
2022-11-17T19:51:31.690Z,100.00
2022-11-17T19:54:02.065Z,100.00
2022-11-17T19:56:29.095Z,100.00
2022-11-17T19:58:56.067Z,100.00
2022-11-17T20:01:27.813Z,100.00
2022-11-17T20:03:55.209Z,100.00
2022-11-17T20:06:26.966Z,100.00
2022-11-17T20:08:54.665Z,100.00
2022-11-17T20:11:26.836Z,100.00
2022-11-17T20:13:54.401Z,100.00
2022-11-17T20:16:26.297Z,100.00
2022-11-17T20:18:55.521Z,100.00
2022-11-17T20:21:22.905Z,100.00
2022-11-17T20:23:50.068Z,100.00
2022-11-17T20:26:19.661Z,100.00
2022-11-17T20:28:46.608Z,100.00
2022-11-17T20:31:17.594Z,100.00
2022-11-17T20:33:44.175Z,100.00
2022-11-17T20:36:15.079Z,100.00
2022-11-17T20:38:41.588Z,100.00
2022-11-17T20:41:08.628Z,100.00
2022-11-17T20:43:35.838Z,100.00
2022-11-17T20:46:03.161Z,100.00
2022-11-17T20:48:30.797Z,100.00
2022-11-17T20:51:09.646Z,100.00
2022-11-17T20:53:36.437Z,100.00
2022-11-17T20:56:05.964Z,100.00
2022-11-17T20:58:33.225Z,100.00
2022-11-17T21:01:07.225Z,100.00
2022-11-17T21:03:34.299Z,100.00
2022-11-17T21:06:04.503Z,100.00
2022-11-17T21:08:33.574Z,100.00
2022-11-17T21:11:02.183Z,100.00
2022-11-17T21:13:31.615Z,100.00
2022-11-17T21:16:05.395Z,100.00
2022-11-17T21:18:32.773Z,100.00
2022-11-17T21:21:00.228Z,100.00
2022-11-17T21:23:27.550Z,100.00
2022-11-17T21:25:54.155Z,100.00
2022-11-17T21:28:20.807Z,100.00
2022-11-17T21:30:47.352Z,100.00
2022-11-17T21:33:13.940Z,100.00
2022-11-17T21:35:40.529Z,100.00
2022-11-17T21:38:06.986Z,100.00
2022-11-17T21:40:33.817Z,100.00
2022-11-17T21:43:00.338Z,100.00
2022-11-17T21:45:26.815Z,100.00
2022-11-17T21:47:59.084Z,100.00
2022-11-17T21:50:26.062Z,100.00
2022-11-17T21:52:52.465Z,100.00
2022-11-17T21:55:19.071Z,100.00
2022-11-17T21:57:45.556Z,100.00
2022-11-17T22:00:12.188Z,100.00
2022-11-17T22:02:38.685Z,100.00
2022-11-17T22:05:05.382Z,100.00
2022-11-17T22:07:31.975Z,100.00
2022-11-17T22:09:58.573Z,100.00
2022-11-17T22:12:25.017Z,100.00
2022-11-17T22:14:51.561Z,100.00
2022-11-17T22:17:18.081Z,100.00
2022-11-17T22:19:44.604Z,100.00
2022-11-17T22:22:11.205Z,100.00
2022-11-17T22:24:39.866Z,100.00
2022-11-17T22:27:06.678Z,100.00
2022-11-17T22:29:33.363Z,100.00
2022-11-17T22:31:59.805Z,100.00
2022-11-17T22:34:26.410Z,100.00
2022-11-17T22:36:52.924Z,100.00
2022-11-17T22:39:19.676Z,100.00
2022-11-17T22:41:46.533Z,100.00
2022-11-17T22:44:14.323Z,100.00
2022-11-17T22:46:43.012Z,100.00
2022-11-17T22:49:10.139Z,100.00
2022-11-17T22:51:54.916Z,100.00
2022-11-17T22:54:21.488Z,100.00
2022-11-17T22:56:48.745Z,100.00
2022-11-17T22:59:15.646Z,100.00
2022-11-17T23:18:02.208Z,100.00
2022-11-17T23:20:28.715Z,100.00
2022-11-17T23:22:55.187Z,100.00
2022-11-17T23:25:21.904Z,100.00
2022-11-17T23:27:48.313Z,100.00
2022-11-17T23:30:14.746Z,100.00
2022-11-17T23:32:41.165Z,100.00
2022-11-17T23:35:07.814Z,100.00
2022-11-17T23:37:34.314Z,100.00
2022-11-17T23:40:00.695Z,100.00
2022-11-17T23:42:32.094Z,100.00
2022-11-17T23:44:59.017Z,100.00
2022-11-17T23:47:25.427Z,100.00
2022-11-17T23:49:51.891Z,100.00
2022-11-17T23:52:18.252Z,100.00
2022-11-17T23:54:44.693Z,100.00
2022-11-17T23:57:11.056Z,100.00
2022-11-17T23:59:37.575Z,100.00
